sensor_id;sensor_type;location;lat;lon;timestamp;pressure;altitude;pressure_sealevel;temperature;humidity
13387;BME280;6763;48.524;9.044;2023-04-21T00:02:25;97410.38;;;10.61;55.72
13387;BME280;6763;48.524;9.044;2023-04-21T00:04:51;97406.22;;;10.55;55.97
13387;BME280;6763;48.524;9.044;2023-04-21T00:07:17;97397.75;;;10.49;55.75
13387;BME280;6763;48.524;9.044;2023-04-21T00:09:44;97403.91;;;10.43;55.90
13387;BME280;6763;48.524;9.044;2023-04-21T00:12:09;97408.41;;;10.37;56.27
13387;BME280;6763;48.524;9.044;2023-04-21T00:14:34;97403.38;;;10.31;56.48
13387;BME280;6763;48.524;9.044;2023-04-21T00:17:00;97405.22;;;10.26;56.03
13387;BME280;6763;48.524;9.044;2023-04-21T00:19:25;97397.59;;;10.20;55.95
13387;BME280;6763;48.524;9.044;2023-04-21T00:21:50;97385.69;;;10.13;56.08
13387;BME280;6763;48.524;9.044;2023-04-21T00:24:16;97380.63;;;10.07;56.14
13387;BME280;6763;48.524;9.044;2023-04-21T00:26:41;97385.91;;;10.02;56.57
13387;BME280;6763;48.524;9.044;2023-04-21T00:29:07;97380.00;;;9.97;56.32
13387;BME280;6763;48.524;9.044;2023-04-21T00:31:32;97374.13;;;9.90;55.94
13387;BME280;6763;48.524;9.044;2023-04-21T00:33:58;97377.66;;;9.86;56.49
13387;BME280;6763;48.524;9.044;2023-04-21T00:36:23;97376.94;;;9.80;56.20
13387;BME280;6763;48.524;9.044;2023-04-21T00:38:49;97380.47;;;9.76;56.30
13387;BME280;6763;48.524;9.044;2023-04-21T00:41:15;97388.38;;;9.70;56.39
13387;BME280;6763;48.524;9.044;2023-04-21T00:44:00;97379.88;;;9.63;56.77
13387;BME280;6763;48.524;9.044;2023-04-21T00:46:26;97377.41;;;9.57;56.57
13387;BME280;6763;48.524;9.044;2023-04-21T00:48:52;97373.25;;;9.52;56.31
13387;BME280;6763;48.524;9.044;2023-04-21T00:51:17;97384.53;;;9.48;56.30
13387;BME280;6763;48.524;9.044;2023-04-21T00:53:43;97378.66;;;9.41;56.68
13387;BME280;6763;48.524;9.044;2023-04-21T00:56:09;97379.63;;;9.34;56.58
13387;BME280;6763;48.524;9.044;2023-04-21T00:58:35;97367.63;;;9.31;56.35
13387;BME280;6763;48.524;9.044;2023-04-21T01:01:01;97372.91;;;9.27;56.62
13387;BME280;6763;48.524;9.044;2023-04-21T01:03:27;97378.16;;;9.22;56.50
13387;BME280;6763;48.524;9.044;2023-04-21T01:05:52;97370.53;;;9.16;55.90
13387;BME280;6763;48.524;9.044;2023-04-21T01:08:18;97374.94;;;9.11;56.67
13387;BME280;6763;48.524;9.044;2023-04-21T01:10:44;97375.94;;;9.04;57.26
13387;BME280;6763;48.524;9.044;2023-04-21T01:13:09;97376.03;;;9.00;56.95
13387;BME280;6763;48.524;9.044;2023-04-21T01:15:34;97377.88;;;8.93;56.59
13387;BME280;6763;48.524;9.044;2023-04-21T01:18:00;97375.44;;;8.86;57.08
13387;BME280;6763;48.524;9.044;2023-04-21T01:20:25;97377.28;;;8.78;56.67
13387;BME280;6763;48.524;9.044;2023-04-21T01:22:53;97388.56;;;8.72;56.53
13387;BME280;6763;48.524;9.044;2023-04-21T01:25:19;97378.44;;;8.63;56.55
13387;BME280;6763;48.524;9.044;2023-04-21T01:27:46;97385.41;;;8.56;56.29
13387;BME280;6763;48.524;9.044;2023-04-21T01:30:12;97382.13;;;8.47;56.63
13387;BME280;6763;48.524;9.044;2023-04-21T01:32:37;97388.28;;;8.40;56.24
13387;BME280;6763;48.524;9.044;2023-04-21T01:35:03;97387.59;;;8.29;56.45
13387;BME280;6763;48.524;9.044;2023-04-21T01:37:32;97391.13;;;8.20;56.47
13387;BME280;6763;48.524;9.044;2023-04-21T01:40:00;97389.63;;;8.08;56.88
13387;BME280;6763;48.524;9.044;2023-04-21T01:42:28;97385.41;;;8.03;56.92
13387;BME280;6763;48.524;9.044;2023-04-21T01:44:54;97388.13;;;7.92;57.20
13387;BME280;6763;48.524;9.044;2023-04-21T01:47:22;97395.91;;;7.91;57.50
13387;BME280;6763;48.524;9.044;2023-04-21T01:49:48;97389.06;;;7.87;57.78
13387;BME280;6763;48.524;9.044;2023-04-21T01:52:13;97398.50;;;7.86;58.45
13387;BME280;6763;48.524;9.044;2023-04-21T01:54:38;97395.94;;;7.88;58.35
13387;BME280;6763;48.524;9.044;2023-04-21T01:57:04;97392.47;;;7.90;58.64
13387;BME280;6763;48.524;9.044;2023-04-21T01:59:30;97401.84;;;7.94;58.69
13387;BME280;6763;48.524;9.044;2023-04-21T02:01:56;97395.75;;;8.00;58.84
13387;BME280;6763;48.524;9.044;2023-04-21T02:04:21;97397.38;;;8.05;58.89
13387;BME280;6763;48.524;9.044;2023-04-21T02:06:46;97400.72;;;8.12;58.98
13387;BME280;6763;48.524;9.044;2023-04-21T02:09:12;97397.22;;;8.16;58.80
13387;BME280;6763;48.524;9.044;2023-04-21T02:11:37;97391.09;;;8.23;59.25
13387;BME280;6763;48.524;9.044;2023-04-21T02:14:03;97405.59;;;8.30;59.42
13387;BME280;6763;48.524;9.044;2023-04-21T02:16:28;97406.38;;;8.37;59.47
13387;BME280;6763;48.524;9.044;2023-04-21T02:18:55;97411.44;;;8.43;59.15
13387;BME280;6763;48.524;9.044;2023-04-21T02:21:27;97413.03;;;8.50;59.47
13387;BME280;6763;48.524;9.044;2023-04-21T02:23:53;97406.03;;;8.58;59.21
13387;BME280;6763;48.524;9.044;2023-04-21T02:26:19;97406.75;;;8.64;59.04
13387;BME280;6763;48.524;9.044;2023-04-21T02:28:45;97404.09;;;8.69;59.47
13387;BME280;6763;48.524;9.044;2023-04-21T02:31:10;97404.94;;;8.71;58.92
13387;BME280;6763;48.524;9.044;2023-04-21T02:33:36;97393.72;;;8.73;58.99
13387;BME280;6763;48.524;9.044;2023-04-21T02:36:02;97404.84;;;8.76;59.19
13387;BME280;6763;48.524;9.044;2023-04-21T02:38:27;97406.53;;;8.78;59.13
13387;BME280;6763;48.524;9.044;2023-04-21T02:40:52;97403.91;;;8.80;59.34
13387;BME280;6763;48.524;9.044;2023-04-21T02:43:18;97399.59;;;8.82;59.59
13387;BME280;6763;48.524;9.044;2023-04-21T02:45:43;97403.88;;;8.83;59.16
13387;BME280;6763;48.524;9.044;2023-04-21T02:48:09;97407.34;;;8.82;59.19
13387;BME280;6763;48.524;9.044;2023-04-21T02:50:35;97398.69;;;8.83;59.31
13387;BME280;6763;48.524;9.044;2023-04-21T02:53:00;97385.81;;;8.83;59.55
13387;BME280;6763;48.524;9.044;2023-04-21T02:55:26;97385.81;;;8.83;59.36
13387;BME280;6763;48.524;9.044;2023-04-21T02:57:51;97379.78;;;8.82;58.70
13387;BME280;6763;48.524;9.044;2023-04-21T03:00:16;97381.53;;;8.82;58.99
13387;BME280;6763;48.524;9.044;2023-04-21T03:02:42;97386.66;;;8.83;59.22
13387;BME280;6763;48.524;9.044;2023-04-21T03:05:08;97383.16;;;8.86;58.95
13387;BME280;6763;48.524;9.044;2023-04-21T03:07:34;97380.59;;;8.86;59.33
13387;BME280;6763;48.524;9.044;2023-04-21T03:09:59;97380.59;;;8.86;58.71
13387;BME280;6763;48.524;9.044;2023-04-21T03:12:25;97379.72;;;8.85;58.70
13387;BME280;6763;48.524;9.044;2023-04-21T03:14:50;97379.78;;;8.84;59.26
13387;BME280;6763;48.524;9.044;2023-04-21T03:17:15;97386.63;;;8.85;59.68
13387;BME280;6763;48.524;9.044;2023-04-21T03:19:41;97378.00;;;8.86;59.05
13387;BME280;6763;48.524;9.044;2023-04-21T03:22:06;97385.75;;;8.86;58.89
13387;BME280;6763;48.524;9.044;2023-04-21T03:24:33;97387.47;;;8.85;58.84
13387;BME280;6763;48.524;9.044;2023-04-21T03:26:58;97386.63;;;8.85;58.86
13387;BME280;6763;48.524;9.044;2023-04-21T03:29:24;97375.44;;;8.86;59.12
13387;BME280;6763;48.524;9.044;2023-04-21T03:31:49;97369.41;;;8.87;58.76
13387;BME280;6763;48.524;9.044;2023-04-21T03:34:15;97381.41;;;8.88;59.02
13387;BME280;6763;48.524;9.044;2023-04-21T03:36:44;97390.88;;;8.89;58.89
13387;BME280;6763;48.524;9.044;2023-04-21T03:39:09;97397.75;;;8.88;58.94
13387;BME280;6763;48.524;9.044;2023-04-21T03:41:35;97396.03;;;8.87;58.67
13387;BME280;6763;48.524;9.044;2023-04-21T03:44:00;97401.19;;;8.87;58.82
13387;BME280;6763;48.524;9.044;2023-04-21T03:46:26;97390.97;;;8.84;59.13
13387;BME280;6763;48.524;9.044;2023-04-21T03:48:51;97387.53;;;8.82;58.88
13387;BME280;6763;48.524;9.044;2023-04-21T03:51:16;97382.41;;;8.81;58.86
13387;BME280;6763;48.524;9.044;2023-04-21T03:53:42;97386.72;;;8.80;58.70
13387;BME280;6763;48.524;9.044;2023-04-21T03:56:08;97385.94;;;8.77;58.83
13387;BME280;6763;48.524;9.044;2023-04-21T03:58:34;97373.94;;;8.74;58.62
13387;BME280;6763;48.524;9.044;2023-04-21T04:00:59;97375.66;;;8.73;59.16
13387;BME280;6763;48.524;9.044;2023-04-21T04:03:25;97378.19;;;8.75;59.41
13387;BME280;6763;48.524;9.044;2023-04-21T04:06:00;97377.34;;;8.74;58.56
13387;BME280;6763;48.524;9.044;2023-04-21T04:08:28;97375.63;;;8.77;58.92
13387;BME280;6763;48.524;9.044;2023-04-21T04:10:54;97379.81;;;8.81;59.36
13387;BME280;6763;48.524;9.044;2023-04-21T04:13:20;97385.88;;;8.78;58.95
13387;BME280;6763;48.524;9.044;2023-04-21T04:15:47;97376.38;;;8.80;59.05
13387;BME280;6763;48.524;9.044;2023-04-21T04:18:17;97385.81;;;8.83;59.28
13387;BME280;6763;48.524;9.044;2023-04-21T04:20:43;97379.78;;;8.84;58.94
13387;BME280;6763;48.524;9.044;2023-04-21T04:23:08;97383.16;;;8.86;58.96
13387;BME280;6763;48.524;9.044;2023-04-21T04:25:34;97374.56;;;8.85;59.07
13387;BME280;6763;48.524;9.044;2023-04-21T04:27:59;97375.53;;;8.81;58.97
13387;BME280;6763;48.524;9.044;2023-04-21T04:30:25;97388.44;;;8.80;59.09
13387;BME280;6763;48.524;9.044;2023-04-21T04:32:52;97381.59;;;8.77;58.68
13387;BME280;6763;48.524;9.044;2023-04-21T04:35:18;97382.50;;;8.74;58.73
13387;BME280;6763;48.524;9.044;2023-04-21T04:37:43;97381.72;;;8.71;59.09
13387;BME280;6763;48.524;9.044;2023-04-21T04:40:09;97383.41;;;8.72;59.00
13387;BME280;6763;48.524;9.044;2023-04-21T04:42:38;97398.03;;;8.71;59.32
13387;BME280;6763;48.524;9.044;2023-04-21T04:45:05;97390.25;;;8.74;59.25
13387;BME280;6763;48.524;9.044;2023-04-21T04:47:33;97391.06;;;8.78;58.77
13387;BME280;6763;48.524;9.044;2023-04-21T04:49:58;97394.44;;;8.82;58.77
13387;BME280;6763;48.524;9.044;2023-04-21T04:52:24;97396.13;;;8.83;59.14
13387;BME280;6763;48.524;9.044;2023-04-21T04:54:49;97403.88;;;8.83;58.82
13387;BME280;6763;48.524;9.044;2023-04-21T04:57:15;97399.59;;;8.80;58.92
13387;BME280;6763;48.524;9.044;2023-04-21T04:59:40;97403.06;;;8.81;58.92
13387;BME280;6763;48.524;9.044;2023-04-21T05:02:06;97400.44;;;8.82;58.58
13387;BME280;6763;48.524;9.044;2023-04-21T05:04:33;97404.69;;;8.85;58.81
13387;BME280;6763;48.524;9.044;2023-04-21T05:06:58;97401.28;;;8.84;58.89
13387;BME280;6763;48.524;9.044;2023-04-21T05:09:24;97399.47;;;8.89;58.99
13387;BME280;6763;48.524;9.044;2023-04-21T05:11:50;97412.22;;;8.95;59.21
13387;BME280;6763;48.524;9.044;2023-04-21T05:14:15;97416.50;;;8.98;58.65
13387;BME280;6763;48.524;9.044;2023-04-21T05:16:42;97419.94;;;8.98;58.63
13387;BME280;6763;48.524;9.044;2023-04-21T05:19:08;97419.06;;;8.99;58.45
13387;BME280;6763;48.524;9.044;2023-04-21T05:21:33;97420.78;;;8.99;58.69
13387;BME280;6763;48.524;9.044;2023-04-21T05:23:59;97410.50;;;8.97;58.45
13387;BME280;6763;48.524;9.044;2023-04-21T05:26:26;97405.38;;;8.94;58.91
13387;BME280;6763;48.524;9.044;2023-04-21T05:28:53;97407.06;;;8.97;58.76
13387;BME280;6763;48.524;9.044;2023-04-21T05:31:18;97417.19;;;9.06;58.71
13387;BME280;6763;48.524;9.044;2023-04-21T05:33:43;97417.97;;;9.11;58.53
13387;BME280;6763;48.524;9.044;2023-04-21T05:36:09;97415.38;;;9.12;58.38
13387;BME280;6763;48.524;9.044;2023-04-21T05:38:36;97417.84;;;9.17;57.86
13387;BME280;6763;48.524;9.044;2023-04-21T05:41:03;97420.44;;;9.17;57.93
13387;BME280;6763;48.524;9.044;2023-04-21T05:43:29;97420.50;;;9.14;57.86
13387;BME280;6763;48.524;9.044;2023-04-21T05:45:57;97428.34;;;9.09;57.83
13387;BME280;6763;48.524;9.044;2023-04-21T05:48:23;97421.53;;;9.04;57.64
13387;BME280;6763;48.524;9.044;2023-04-21T05:50:48;97409.59;;;9.00;57.76
13387;BME280;6763;48.524;9.044;2023-04-21T05:53:13;97400.09;;;9.00;57.88
13387;BME280;6763;48.524;9.044;2023-04-21T05:55:39;97406.09;;;9.02;57.65
13387;BME280;6763;48.524;9.044;2023-04-21T05:58:04;97400.81;;;9.08;57.92
13387;BME280;6763;48.524;9.044;2023-04-21T06:00:30;97394.56;;;9.18;58.17
13387;BME280;6763;48.524;9.044;2023-04-21T06:02:55;97395.38;;;9.22;57.52
13387;BME280;6763;48.524;9.044;2023-04-21T06:05:21;97401.34;;;9.25;58.19
13387;BME280;6763;48.524;9.044;2023-04-21T06:07:46;97409.00;;;9.30;57.80
13387;BME280;6763;48.524;9.044;2023-04-21T06:10:13;97416.69;;;9.31;57.12
13387;BME280;6763;48.524;9.044;2023-04-21T06:12:38;97409.88;;;9.29;57.28
13387;BME280;6763;48.524;9.044;2023-04-21T06:15:04;97411.63;;;9.27;57.09
13387;BME280;6763;48.524;9.044;2023-04-21T06:17:30;97411.69;;;9.24;57.37
13387;BME280;6763;48.524;9.044;2023-04-21T06:19:55;97396.34;;;9.18;57.27
13387;BME280;6763;48.524;9.044;2023-04-21T06:22:24;97403.28;;;9.14;57.13
13387;BME280;6763;48.524;9.044;2023-04-21T06:24:51;97399.81;;;9.15;58.12
13387;BME280;6763;48.524;9.044;2023-04-21T06:27:16;97410.88;;;9.22;57.70
13387;BME280;6763;48.524;9.044;2023-04-21T06:29:42;97415.97;;;9.25;57.85
13387;BME280;6763;48.524;9.044;2023-04-21T06:32:09;97403.72;;;9.36;57.59
13387;BME280;6763;48.524;9.044;2023-04-21T06:34:35;97410.34;;;9.48;57.48
13387;BME280;6763;48.524;9.044;2023-04-21T06:37:00;97402.44;;;9.55;57.39
13387;BME280;6763;48.524;9.044;2023-04-21T06:39:27;97403.09;;;9.66;57.36
13387;BME280;6763;48.524;9.044;2023-04-21T06:41:53;97406.38;;;9.73;56.70
13387;BME280;6763;48.524;9.044;2023-04-21T06:44:19;97401.06;;;9.79;56.49
13387;BME280;6763;48.524;9.044;2023-04-21T06:46:45;97395.03;;;9.80;56.53
13387;BME280;6763;48.524;9.044;2023-04-21T06:49:12;97404.19;;;9.94;56.29
13387;BME280;6763;48.524;9.044;2023-04-21T06:51:38;97413.25;;;10.14;55.54
13387;BME280;6763;48.524;9.044;2023-04-21T06:54:03;97408.69;;;10.25;55.42
13387;BME280;6763;48.524;9.044;2023-04-21T06:56:30;97408.03;;;10.52;55.73
13387;BME280;6763;48.524;9.044;2023-04-21T06:58:55;97404.94;;;10.72;55.75
13387;BME280;6763;48.524;9.044;2023-04-21T07:01:21;97402.06;;;10.84;55.02
13387;BME280;6763;48.524;9.044;2023-04-21T07:03:49;97392.44;;;10.89;54.97
13387;BME280;6763;48.524;9.044;2023-04-21T07:06:14;97404.31;;;10.96;55.29
13387;BME280;6763;48.524;9.044;2023-04-21T07:08:40;97401.59;;;11.00;54.78
13387;BME280;6763;48.524;9.044;2023-04-21T07:11:06;97399.66;;;11.08;54.77
13387;BME280;6763;48.524;9.044;2023-04-21T07:13:31;97408.81;;;11.21;54.65
13387;BME280;6763;48.524;9.044;2023-04-21T07:15:56;97405.63;;;11.43;54.75
13387;BME280;6763;48.524;9.044;2023-04-21T07:18:22;97407.59;;;11.64;54.16
13387;BME280;6763;48.524;9.044;2023-04-21T07:20:48;97405.44;;;11.79;53.95
13387;BME280;6763;48.524;9.044;2023-04-21T07:23:13;97407.81;;;11.87;52.84
13387;BME280;6763;48.524;9.044;2023-04-21T07:25:38;97395.72;;;11.86;52.36
13387;BME280;6763;48.524;9.044;2023-04-21T07:28:04;97395.47;;;11.95;53.24
13387;BME280;6763;48.524;9.044;2023-04-21T07:30:29;97391.59;;;12.08;52.87
13387;BME280;6763;48.524;9.044;2023-04-21T07:32:56;97396.41;;;12.20;52.39
13387;BME280;6763;48.524;9.044;2023-04-21T07:35:22;97403.00;;;12.30;52.18
13387;BME280;6763;48.524;9.044;2023-04-21T07:37:47;97399.19;;;12.42;51.73
13387;BME280;6763;48.524;9.044;2023-04-21T07:40:13;97392.69;;;12.55;51.83
13387;BME280;6763;48.524;9.044;2023-04-21T07:42:38;97399.75;;;12.76;51.54
13387;BME280;6763;48.524;9.044;2023-04-21T07:45:04;97398.34;;;12.92;50.46
13387;BME280;6763;48.524;9.044;2023-04-21T07:47:30;97396.34;;;13.00;49.83
13387;BME280;6763;48.524;9.044;2023-04-21T07:49:55;97378.59;;;13.13;50.29
13387;BME280;6763;48.524;9.044;2023-04-21T07:52:21;97378.88;;;13.30;50.66
13387;BME280;6763;48.524;9.044;2023-04-21T07:54:47;97379.66;;;13.55;50.66
13387;BME280;6763;48.524;9.044;2023-04-21T07:57:12;97369.34;;;13.76;49.90
13387;BME280;6763;48.524;9.044;2023-04-21T07:59:38;97364.97;;;13.99;49.59
13387;BME280;6763;48.524;9.044;2023-04-21T08:02:04;97368.25;;;14.26;48.37
13387;BME280;6763;48.524;9.044;2023-04-21T08:04:29;97358.75;;;14.47;47.59
13387;BME280;6763;48.524;9.044;2023-04-21T08:06:55;97365.50;;;14.72;47.46
13387;BME280;6763;48.524;9.044;2023-04-21T08:09:21;97361.88;;;14.97;46.66
13387;BME280;6763;48.524;9.044;2023-04-21T08:11:46;97360.41;;;15.10;46.34
13387;BME280;6763;48.524;9.044;2023-04-21T08:14:18;97357.00;;;15.28;46.36
13387;BME280;6763;48.524;9.044;2023-04-21T08:16:44;97355.31;;;15.47;46.47
13387;BME280;6763;48.524;9.044;2023-04-21T08:19:09;97361.78;;;15.57;46.43
13387;BME280;6763;48.524;9.044;2023-04-21T08:21:35;97362.72;;;15.56;45.83
13387;BME280;6763;48.524;9.044;2023-04-21T08:24:01;97364.16;;;15.43;46.34
13387;BME280;6763;48.524;9.044;2023-04-21T08:26:26;97362.78;;;15.34;46.70
13387;BME280;6763;48.524;9.044;2023-04-21T08:28:54;97359.16;;;15.18;46.15
13387;BME280;6763;48.524;9.044;2023-04-21T08:31:20;97361.59;;;15.03;46.79
13387;BME280;6763;48.524;9.044;2023-04-21T08:33:46;97349.75;;;14.96;46.95
13387;BME280;6763;48.524;9.044;2023-04-21T08:36:12;97349.28;;;14.86;46.76
13387;BME280;6763;48.524;9.044;2023-04-21T08:38:38;97335.63;;;14.81;47.34
13387;BME280;6763;48.524;9.044;2023-04-21T08:41:04;97334.56;;;14.85;47.45
13387;BME280;6763;48.524;9.044;2023-04-21T08:43:30;97337.47;;;14.98;47.47
13387;BME280;6763;48.524;9.044;2023-04-21T08:45:55;97343.09;;;15.09;46.92
13387;BME280;6763;48.524;9.044;2023-04-21T08:48:22;97345.34;;;15.16;46.89
13387;BME280;6763;48.524;9.044;2023-04-21T08:50:51;97346.84;;;15.22;46.66
13387;BME280;6763;48.524;9.044;2023-04-21T08:53:18;97348.41;;;15.26;46.39
13387;BME280;6763;48.524;9.044;2023-04-21T08:55:51;97337.56;;;15.35;46.64
13387;BME280;6763;48.524;9.044;2023-04-21T08:58:17;97337.03;;;15.47;46.15
13387;BME280;6763;48.524;9.044;2023-04-21T09:00:42;97331.59;;;15.51;45.26
13387;BME280;6763;48.524;9.044;2023-04-21T09:03:08;97333.06;;;15.59;45.12
13387;BME280;6763;48.524;9.044;2023-04-21T09:05:34;97331.72;;;15.69;45.03
13387;BME280;6763;48.524;9.044;2023-04-21T09:08:08;97321.53;;;15.81;44.16
13387;BME280;6763;48.524;9.044;2023-04-21T09:10:44;97317.81;;;15.87;43.29
13387;BME280;6763;48.524;9.044;2023-04-21T09:13:10;97318.56;;;15.89;43.58
13387;BME280;6763;48.524;9.044;2023-04-21T09:15:40;97313.25;;;15.90;43.14
13387;BME280;6763;48.524;9.044;2023-04-21T09:18:14;97306.84;;;15.97;43.72
13387;BME280;6763;48.524;9.044;2023-04-21T09:20:44;97314.34;;;16.22;43.62
13387;BME280;6763;48.524;9.044;2023-04-21T09:23:10;97298.25;;;16.65;43.34
13387;BME280;6763;48.524;9.044;2023-04-21T09:25:41;97289.38;;;17.19;42.56
13387;BME280;6763;48.524;9.044;2023-04-21T09:28:08;97290.88;;;17.72;41.41
13387;BME280;6763;48.524;9.044;2023-04-21T09:30:35;97293.59;;;18.31;40.70
13387;BME280;6763;48.524;9.044;2023-04-21T09:33:04;97283.50;;;18.99;39.74
13387;BME280;6763;48.524;9.044;2023-04-21T09:35:34;97282.59;;;19.70;38.41
13387;BME280;6763;48.524;9.044;2023-04-21T09:38:01;97272.81;;;20.40;37.68
13387;BME280;6763;48.524;9.044;2023-04-21T09:40:29;97263.88;;;21.07;36.37
13387;BME280;6763;48.524;9.044;2023-04-21T09:42:54;97270.75;;;21.71;35.61
13387;BME280;6763;48.524;9.044;2023-04-21T09:45:24;97261.19;;;22.30;34.72
13387;BME280;6763;48.524;9.044;2023-04-21T09:47:54;97263.44;;;22.82;33.52
13387;BME280;6763;48.524;9.044;2023-04-21T09:50:22;97269.38;;;23.19;32.39
13387;BME280;6763;48.524;9.044;2023-04-21T09:52:49;97268.06;;;23.35;31.40
13387;BME280;6763;48.524;9.044;2023-04-21T09:55:17;97267.00;;;23.49;31.69
13387;BME280;6763;48.524;9.044;2023-04-21T09:57:44;97264.09;;;23.63;30.43
13387;BME280;6763;48.524;9.044;2023-04-21T10:00:14;97264.28;;;23.39;30.04
13387;BME280;6763;48.524;9.044;2023-04-21T10:02:54;97269.72;;;23.25;30.61
13387;BME280;6763;48.524;9.044;2023-04-21T10:05:21;97260.38;;;23.32;30.93
13387;BME280;6763;48.524;9.044;2023-04-21T10:07:47;97252.63;;;23.42;30.06
13387;BME280;6763;48.524;9.044;2023-04-21T10:10:22;97254.66;;;23.50;30.15
13387;BME280;6763;48.524;9.044;2023-04-21T10:12:51;97249.09;;;23.75;30.61
13387;BME280;6763;48.524;9.044;2023-04-21T10:15:36;97246.31;;;24.10;29.45
13387;BME280;6763;48.524;9.044;2023-04-21T10:18:21;97238.91;;;24.24;29.27
13387;BME280;6763;48.524;9.044;2023-04-21T10:20:55;97241.38;;;24.37;29.28
13387;BME280;6763;48.524;9.044;2023-04-21T10:26:33;97245.81;;;24.89;29.11
13387;BME280;6763;48.524;9.044;2023-04-21T10:29:00;97231.50;;;25.21;28.74
13387;BME280;6763;48.524;9.044;2023-04-21T10:39:02;97218.03;;;25.55;28.03
13387;BME280;6763;48.524;9.044;2023-04-21T10:41:32;97224.13;;;25.46;27.86
13387;BME280;6763;48.524;9.044;2023-04-21T10:46:44;97217.09;;;25.65;28.17
13387;BME280;6763;48.524;9.044;2023-04-21T10:49:23;97221.63;;;25.94;28.11
13387;BME280;6763;48.524;9.044;2023-04-21T10:52:02;97209.66;;;26.28;27.51
13387;BME280;6763;48.524;9.044;2023-04-21T10:57:12;97211.16;;;26.59;27.18
13387;BME280;6763;48.524;9.044;2023-04-21T10:59:38;97209.06;;;26.72;27.22
13387;BME280;6763;48.524;9.044;2023-04-21T11:02:10;97202.34;;;26.97;26.95
13387;BME280;6763;48.524;9.044;2023-04-21T11:04:35;97187.72;;;27.20;26.92
13387;BME280;6763;48.524;9.044;2023-04-21T11:09:44;97201.94;;;27.65;26.65
13387;BME280;6763;48.524;9.044;2023-04-21T11:12:15;97194.69;;;27.85;25.63
13387;BME280;6763;48.524;9.044;2023-04-21T11:14:45;97188.75;;;27.74;25.20
13387;BME280;6763;48.524;9.044;2023-04-21T11:17:18;97192.13;;;27.39;25.55
13387;BME280;6763;48.524;9.044;2023-04-21T11:19:45;97186.03;;;27.19;26.24
13387;BME280;6763;48.524;9.044;2023-04-21T11:22:11;97187.78;;;27.11;26.66
13387;BME280;6763;48.524;9.044;2023-04-21T11:24:36;97182.13;;;27.23;26.70
13387;BME280;6763;48.524;9.044;2023-04-21T11:27:02;97187.63;;;27.49;26.56
13387;BME280;6763;48.524;9.044;2023-04-21T11:29:28;97178.56;;;27.69;26.02
13387;BME280;6763;48.524;9.044;2023-04-21T11:31:54;97179.59;;;27.58;26.12
13387;BME280;6763;48.524;9.044;2023-04-21T11:34:22;97169.59;;;27.43;26.06
13387;BME280;6763;48.524;9.044;2023-04-21T11:36:50;97174.78;;;27.35;26.33
13387;BME280;6763;48.524;9.044;2023-04-21T11:39:16;97183.16;;;27.49;26.33
13387;BME280;6763;48.524;9.044;2023-04-21T11:41:49;97165.66;;;27.74;26.01
13387;BME280;6763;48.524;9.044;2023-04-21T11:46:55;97160.53;;;28.25;26.10
13387;BME280;6763;48.524;9.044;2023-04-21T11:49:26;97160.25;;;28.54;25.79
13387;BME280;6763;48.524;9.044;2023-04-21T11:52:07;97158.13;;;28.75;24.81
13387;BME280;6763;48.524;9.044;2023-04-21T11:54:33;97164.78;;;28.71;24.50
13387;BME280;6763;48.524;9.044;2023-04-21T11:56:59;97168.25;;;28.72;24.57
13387;BME280;6763;48.524;9.044;2023-04-21T11:59:25;97146.69;;;28.83;24.24
13387;BME280;6763;48.524;9.044;2023-04-21T12:01:53;97146.97;;;29.06;24.10
13387;BME280;6763;48.524;9.044;2023-04-21T12:04:23;97138.84;;;29.41;23.86
13387;BME280;6763;48.524;9.044;2023-04-21T12:06:59;97143.41;;;29.57;23.84
13387;BME280;6763;48.524;9.044;2023-04-21T12:09:26;97132.09;;;29.71;23.55
13387;BME280;6763;48.524;9.044;2023-04-21T12:12:00;97127.78;;;29.70;23.62
13387;BME280;6763;48.524;9.044;2023-04-21T12:14:32;97133.28;;;29.76;23.70
13387;BME280;6763;48.524;9.044;2023-04-21T12:16:57;97135.84;;;29.94;23.43
13387;BME280;6763;48.524;9.044;2023-04-21T12:19:37;97130.22;;;30.29;23.32
13387;BME280;6763;48.524;9.044;2023-04-21T12:22:11;97120.69;;;30.35;22.71
13387;BME280;6763;48.524;9.044;2023-04-21T12:24:38;97123.69;;;30.32;23.08
13387;BME280;6763;48.524;9.044;2023-04-21T12:27:05;97135.59;;;30.45;22.74
13387;BME280;6763;48.524;9.044;2023-04-21T12:29:36;97125.19;;;30.34;22.77
13387;BME280;6763;48.524;9.044;2023-04-21T12:32:14;97118.88;;;30.11;22.87
13387;BME280;6763;48.524;9.044;2023-04-21T12:34:52;97118.25;;;29.67;22.66
13387;BME280;6763;48.524;9.044;2023-04-21T12:37:18;97117.28;;;29.26;23.58
13387;BME280;6763;48.524;9.044;2023-04-21T12:39:48;97117.97;;;29.28;23.75
13387;BME280;6763;48.524;9.044;2023-04-21T12:42:13;97110.88;;;29.53;23.08
13387;BME280;6763;48.524;9.044;2023-04-21T12:44:39;97108.72;;;29.57;23.30
13387;BME280;6763;48.524;9.044;2023-04-21T12:47:05;97112.00;;;29.42;23.17
13387;BME280;6763;48.524;9.044;2023-04-21T12:49:30;97106.72;;;29.59;23.61
13387;BME280;6763;48.524;9.044;2023-04-21T12:51:55;97114.59;;;29.68;23.52
13387;BME280;6763;48.524;9.044;2023-04-21T12:54:21;97103.16;;;30.00;23.10
13387;BME280;6763;48.524;9.044;2023-04-21T12:56:46;97110.38;;;30.48;22.57
13387;BME280;6763;48.524;9.044;2023-04-21T12:59:11;97100.59;;;30.87;21.89
13387;BME280;6763;48.524;9.044;2023-04-21T13:01:40;97101.69;;;31.25;21.06
13387;BME280;6763;48.524;9.044;2023-04-21T13:04:07;97096.38;;;31.17;20.98
13387;BME280;6763;48.524;9.044;2023-04-21T13:06:32;97094.47;;;31.34;21.10
13387;BME280;6763;48.524;9.044;2023-04-21T13:08:58;97098.47;;;31.68;21.02
13387;BME280;6763;48.524;9.044;2023-04-21T13:11:23;97101.78;;;32.01;20.68
13387;BME280;6763;48.524;9.044;2023-04-21T13:13:49;97099.69;;;32.34;20.62
13387;BME280;6763;48.524;9.044;2023-04-21T13:16:15;97097.50;;;32.75;20.35
13387;BME280;6763;48.524;9.044;2023-04-21T13:18:40;97089.13;;;33.07;19.77
13387;BME280;6763;48.524;9.044;2023-04-21T13:21:05;97097.16;;;33.22;19.35
13387;BME280;6763;48.524;9.044;2023-04-21T13:23:31;97096.31;;;33.36;18.97
13387;BME280;6763;48.524;9.044;2023-04-21T13:25:56;97084.66;;;33.43;19.00
13387;BME280;6763;48.524;9.044;2023-04-21T13:28:22;97079.59;;;33.55;18.79
13387;BME280;6763;48.524;9.044;2023-04-21T13:30:48;97079.44;;;33.42;18.60
13387;BME280;6763;48.524;9.044;2023-04-21T13:33:13;97081.22;;;33.35;18.66
13387;BME280;6763;48.524;9.044;2023-04-21T13:35:39;97080.09;;;33.44;18.57
13387;BME280;6763;48.524;9.044;2023-04-21T13:38:04;97088.13;;;33.44;18.61